createdAt,value
2022-07-28T00:00:17.675Z,11.81
2022-07-28T00:02:46.680Z,12.23
2022-07-28T00:05:23.341Z,12.16
2022-07-28T00:07:53.995Z,12.09
2022-07-28T00:10:28.022Z,11.16
2022-07-28T00:13:00.028Z,11.93
2022-07-28T00:15:37.457Z,11.89
2022-07-28T00:18:07.098Z,10.48
2022-07-28T00:20:52.884Z,11.10
2022-07-28T00:23:39.221Z,11.74
2022-07-28T00:26:19.461Z,11.68
2022-07-28T00:28:49.965Z,11.62
2022-07-28T00:31:27.088Z,11.59
2022-07-28T00:33:56.139Z,11.58
2022-07-28T00:36:25.687Z,11.55
2022-07-28T00:39:00.388Z,11.52
2022-07-28T00:41:33.617Z,11.50
2022-07-28T00:44:12.880Z,10.10
2022-07-28T00:46:47.280Z,11.54
2022-07-28T00:49:17.188Z,11.55
2022-07-28T00:51:51.645Z,11.52
2022-07-28T00:54:21.011Z,11.47
2022-07-28T00:56:52.015Z,11.44
2022-07-28T00:59:29.060Z,11.44
2022-07-28T01:02:00.327Z,11.43
2022-07-28T01:04:36.641Z,11.42
2022-07-28T01:07:30.811Z,10.27
2022-07-28T01:10:12.220Z,10.82
2022-07-28T01:12:59.430Z,10.63
2022-07-28T01:15:47.493Z,10.57
2022-07-28T01:18:22.968Z,9.86
2022-07-28T01:20:56.655Z,10.38
2022-07-28T01:24:10.962Z,9.81
2022-07-28T01:26:58.257Z,10.46
2022-07-28T01:30:06.646Z,10.83
2022-07-28T01:32:42.758Z,9.52
2022-07-28T01:35:22.778Z,10.36
2022-07-28T01:38:02.355Z,10.32
2022-07-28T01:40:37.489Z,9.79
2022-07-28T01:43:13.500Z,11.05
2022-07-28T01:45:53.296Z,11.00
2022-07-28T01:48:32.815Z,10.98
2022-07-28T01:51:16.715Z,9.36
2022-07-28T01:53:52.269Z,9.88
2022-07-28T01:56:35.734Z,10.39
2022-07-28T01:59:15.446Z,9.87
2022-07-28T02:01:48.550Z,10.39
2022-07-28T02:04:26.820Z,10.35
2022-07-28T02:07:00.259Z,10.86
2022-07-28T02:09:30.477Z,10.83
2022-07-28T02:12:03.353Z,10.80
2022-07-28T02:14:36.453Z,10.79
2022-07-28T02:17:12.004Z,9.80
2022-07-28T02:19:47.442Z,10.26
2022-07-28T02:22:20.546Z,9.79
2022-07-28T02:24:52.920Z,10.33
2022-07-28T02:27:38.256Z,9.25
2022-07-28T02:30:18.026Z,8.77
2022-07-28T02:33:01.476Z,8.49
2022-07-28T02:35:51.131Z,8.46
2022-07-28T02:38:37.969Z,10.43
2022-07-28T02:41:16.306Z,8.57
2022-07-28T02:43:51.966Z,10.26
2022-07-28T02:46:33.787Z,9.67
2022-07-28T02:49:13.577Z,10.18
2022-07-28T02:51:47.041Z,9.48
2022-07-28T02:54:19.129Z,9.22
2022-07-28T02:56:54.305Z,9.00
2022-07-28T02:59:28.350Z,9.91
2022-07-28T03:02:00.193Z,10.43
2022-07-28T03:04:48.053Z,10.44
2022-07-28T03:07:19.198Z,10.42
2022-07-28T03:09:52.470Z,9.90
2022-07-28T03:12:24.359Z,10.38
2022-07-28T03:14:55.904Z,10.35
2022-07-28T03:17:32.440Z,10.35
2022-07-28T03:20:06.250Z,10.34
2022-07-28T03:23:36.983Z,10.33
2022-07-28T03:29:30.000Z,9.92
2022-07-28T03:32:02.825Z,9.92
2022-07-28T03:34:31.747Z,10.36
2022-07-28T03:37:12.204Z,9.87
2022-07-28T03:39:49.793Z,10.22
2022-07-28T03:42:22.997Z,10.39
2022-07-28T03:44:54.791Z,9.32
2022-07-28T03:47:24.346Z,10.43
2022-07-28T03:49:57.322Z,10.47
2022-07-28T03:52:28.053Z,10.51
2022-07-28T03:55:04.701Z,10.52
2022-07-28T03:57:55.782Z,10.55
2022-07-28T04:00:23.398Z,10.62
2022-07-28T04:02:52.152Z,10.67
2022-07-28T04:05:21.630Z,8.48
2022-07-28T04:08:11.004Z,10.75
2022-07-28T04:10:48.158Z,10.81
2022-07-28T04:13:16.975Z,10.89
2022-07-28T04:15:45.756Z,10.97
2022-07-28T04:18:14.658Z,11.07
2022-07-28T04:20:43.719Z,11.14
2022-07-28T04:23:21.221Z,11.25
2022-07-28T04:25:51.629Z,11.33
2022-07-28T04:28:29.850Z,11.40
2022-07-28T04:31:03.525Z,11.05
2022-07-28T04:33:44.109Z,11.53
2022-07-28T04:36:14.937Z,11.58
2022-07-28T04:38:46.408Z,11.63
2022-07-28T04:41:19.060Z,11.66
2022-07-28T04:43:52.276Z,11.70
2022-07-28T04:46:38.369Z,11.76
2022-07-28T04:49:07.107Z,11.81
2022-07-28T04:51:46.728Z,11.89
2022-07-28T04:54:23.106Z,11.97
2022-07-28T04:56:58.201Z,12.05
2022-07-28T04:59:26.999Z,12.17
2022-07-28T05:02:03.860Z,12.29
2022-07-28T05:04:35.397Z,12.37
2022-07-28T05:07:07.974Z,12.53
2022-07-28T05:09:41.279Z,12.75
2022-07-28T05:12:15.801Z,12.53
2022-07-28T05:14:48.527Z,13.01
2022-07-28T05:17:19.111Z,13.12
2022-07-28T05:19:47.828Z,13.21
2022-07-28T05:22:18.517Z,13.38
2022-07-28T05:24:47.245Z,13.43
2022-07-28T05:27:24.785Z,13.53
2022-07-28T05:30:00.494Z,13.72
2022-07-28T05:32:36.463Z,13.98
2022-07-28T05:35:08.239Z,14.32
2022-07-28T05:37:39.945Z,14.13
2022-07-28T05:40:15.962Z,14.72
2022-07-28T05:42:48.636Z,14.89
2022-07-28T05:45:17.929Z,15.00
2022-07-28T05:48:03.998Z,14.02
2022-07-28T05:50:32.982Z,15.26
2022-07-28T05:53:01.677Z,15.48
2022-07-28T05:55:30.616Z,15.63
2022-07-28T05:58:04.499Z,14.46
2022-07-28T06:00:38.090Z,15.66
2022-07-28T06:03:10.629Z,15.64
2022-07-28T06:06:09.713Z,15.72
2022-07-28T06:08:33.594Z,15.84
2022-07-28T06:11:09.163Z,16.01
2022-07-28T06:13:44.393Z,15.15
2022-07-28T06:16:13.630Z,16.19
2022-07-28T06:18:46.480Z,16.31
2022-07-28T06:21:16.520Z,16.40
2022-07-28T06:23:47.036Z,16.42
2022-07-28T06:26:17.965Z,15.03
2022-07-28T06:29:00.666Z,15.58
2022-07-28T06:31:31.119Z,16.92
2022-07-28T06:33:59.541Z,17.08
2022-07-28T06:36:27.949Z,17.42
2022-07-28T06:38:56.347Z,17.67
2022-07-28T06:41:27.222Z,17.92
2022-07-28T06:43:59.494Z,17.51
2022-07-28T06:46:34.443Z,18.50
2022-07-28T06:49:16.898Z,18.70
2022-07-28T06:51:48.010Z,18.85
2022-07-28T06:54:19.587Z,18.93
2022-07-28T06:57:06.957Z,18.28
2022-07-28T06:59:42.265Z,18.27
2022-07-28T07:02:10.803Z,18.00
2022-07-28T07:04:41.685Z,19.12
2022-07-28T07:07:19.727Z,19.46
2022-07-28T07:09:54.529Z,19.45
2022-07-28T07:12:25.199Z,18.22
2022-07-28T07:15:16.297Z,18.97
2022-07-28T07:17:47.605Z,19.80
2022-07-28T07:20:19.145Z,19.91
2022-07-28T07:22:48.967Z,20.06
2022-07-28T07:25:22.396Z,19.74
2022-07-28T07:28:01.221Z,20.29
2022-07-28T07:30:51.478Z,20.34
2022-07-28T07:33:24.489Z,18.54
2022-07-28T07:36:06.979Z,20.73
2022-07-28T07:38:37.641Z,21.12
2022-07-28T07:41:08.166Z,21.45
2022-07-28T07:43:36.892Z,21.63
2022-07-28T07:46:10.431Z,21.31
2022-07-28T07:48:39.388Z,21.44
2022-07-28T07:51:16.351Z,21.52
2022-07-28T07:53:45.091Z,22.10
2022-07-28T07:56:24.875Z,22.09
2022-07-28T07:58:57.169Z,22.27
2022-07-28T08:01:28.284Z,21.71
2022-07-28T08:04:03.130Z,20.51
2022-07-28T08:06:31.900Z,22.36
2022-07-28T08:09:03.429Z,22.17
2022-07-28T08:11:32.066Z,21.72
2022-07-28T08:14:02.020Z,22.23
2022-07-28T08:16:34.056Z,22.48
2022-07-28T08:19:04.964Z,22.83
2022-07-28T08:21:34.899Z,23.21
2022-07-28T08:24:06.222Z,23.26
2022-07-28T08:26:34.982Z,22.81
2022-07-28T08:29:10.970Z,22.35
2022-07-28T08:31:48.923Z,22.30
2022-07-28T08:34:27.945Z,22.51
2022-07-28T08:37:04.129Z,22.49
2022-07-28T08:39:36.427Z,22.68
2022-07-28T08:42:14.857Z,23.21
2022-07-28T08:44:56.760Z,23.23
2022-07-28T08:47:51.954Z,23.07
2022-07-28T08:50:29.037Z,22.83
2022-07-28T08:53:01.159Z,22.52
2022-07-28T08:55:31.765Z,22.78
2022-07-28T08:58:01.361Z,22.90
2022-07-28T09:00:30.121Z,22.76
2022-07-28T09:03:01.149Z,22.00
2022-07-28T09:05:30.443Z,22.36
2022-07-28T09:08:02.299Z,22.47
2022-07-28T09:10:31.083Z,22.54
2022-07-28T09:12:59.701Z,22.46
2022-07-28T09:15:29.841Z,20.76
2022-07-28T09:18:02.810Z,22.44
2022-07-28T09:20:32.125Z,22.36
2022-07-28T09:23:03.952Z,22.00
2022-07-28T09:25:35.505Z,22.80
2022-07-28T09:28:15.568Z,22.82
2022-07-28T09:30:55.609Z,22.95
2022-07-28T09:33:41.218Z,22.66
2022-07-28T09:36:17.007Z,22.77
2022-07-28T09:38:46.176Z,22.85
2022-07-28T09:41:25.597Z,21.88
2022-07-28T09:44:02.065Z,21.97
2022-07-28T09:46:31.279Z,23.10
2022-07-28T09:49:04.755Z,22.86
2022-07-28T09:51:59.762Z,22.97
2022-07-28T09:54:40.950Z,22.79
2022-07-28T09:57:14.615Z,21.50
2022-07-28T09:59:46.194Z,22.06
2022-07-28T10:02:55.873Z,22.71
2022-07-28T10:05:50.793Z,21.63
2022-07-28T10:08:44.937Z,23.10
2022-07-28T10:11:24.612Z,23.79
2022-07-28T10:14:03.767Z,23.89
2022-07-28T10:16:35.027Z,24.34
2022-07-28T10:19:13.260Z,23.83
2022-07-28T10:24:32.766Z,24.08
2022-07-28T10:27:05.787Z,23.13
2022-07-28T10:29:39.548Z,23.24
2022-07-28T10:32:15.338Z,23.43
2022-07-28T10:34:56.257Z,22.80
2022-07-28T10:37:29.589Z,23.10
2022-07-28T10:40:10.387Z,22.11
2022-07-28T10:42:42.840Z,21.79
2022-07-28T10:45:13.579Z,21.30
2022-07-28T10:47:47.829Z,22.54
2022-07-28T10:50:17.377Z,22.56
2022-07-28T10:52:50.719Z,22.25
2022-07-28T10:55:39.130Z,20.73
2022-07-28T10:58:24.972Z,22.36
2022-07-28T11:00:57.910Z,22.71
2022-07-28T11:03:44.186Z,21.58
2022-07-28T11:06:37.026Z,21.15
2022-07-28T11:09:25.670Z,21.89
2022-07-28T11:12:00.329Z,21.66
2022-07-28T11:14:42.899Z,21.88
2022-07-28T11:17:33.530Z,22.16
2022-07-28T11:20:16.858Z,23.04
2022-07-28T11:23:46.229Z,23.08
2022-07-28T11:26:54.385Z,21.94
2022-07-28T11:29:26.728Z,22.80
2022-07-28T11:32:08.028Z,21.94
2022-07-28T11:35:22.030Z,22.77
2022-07-28T11:38:18.774Z,22.58
2022-07-28T11:40:55.008Z,22.28
2022-07-28T11:43:39.817Z,23.11
2022-07-28T11:46:41.376Z,22.09
2022-07-28T11:49:38.323Z,23.21
2022-07-28T11:52:22.842Z,22.82
2022-07-28T11:55:01.843Z,22.53
2022-07-28T11:57:42.802Z,23.55
2022-07-28T12:00:26.235Z,21.45
2022-07-28T12:03:06.148Z,22.23
2022-07-28T12:05:43.105Z,21.38
2022-07-28T12:08:28.522Z,22.06
2022-07-28T12:10:57.558Z,23.14
2022-07-28T12:13:33.898Z,23.12
2022-07-28T12:16:06.314Z,21.91
2022-07-28T12:18:44.098Z,23.20
2022-07-28T12:21:15.437Z,23.13
2022-07-28T12:23:49.495Z,21.24
2022-07-28T12:26:41.000Z,22.64
2022-07-28T12:29:32.240Z,22.03
2022-07-28T12:32:13.684Z,21.78
2022-07-28T12:34:45.213Z,23.07
2022-07-28T12:37:18.412Z,22.25
2022-07-28T12:40:08.636Z,21.69
2022-07-28T12:42:45.317Z,23.23
2022-07-28T12:45:21.163Z,23.39
2022-07-28T12:47:55.685Z,22.79
2022-07-28T12:50:25.809Z,23.76
2022-07-28T12:53:10.187Z,23.65
2022-07-28T12:55:44.081Z,23.14
2022-07-28T12:58:29.099Z,22.17
2022-07-28T13:01:02.397Z,24.13
2022-07-28T13:03:54.770Z,23.09
2022-07-28T13:09:14.852Z,24.25
2022-07-28T13:11:55.738Z,24.26
2022-07-28T13:14:43.905Z,24.31
2022-07-28T13:17:20.334Z,22.45
2022-07-28T13:20:03.596Z,22.33
2022-07-28T13:22:34.648Z,23.44
2022-07-28T13:25:07.129Z,24.18
2022-07-28T13:27:41.476Z,24.03
2022-07-28T13:30:11.289Z,22.27
2022-07-28T13:32:45.955Z,23.96
2022-07-28T13:35:26.313Z,23.64
2022-07-28T13:38:00.774Z,24.08
2022-07-28T13:40:32.353Z,23.39
2022-07-28T13:43:11.376Z,24.00
2022-07-28T13:45:48.170Z,23.97
2022-07-28T13:48:20.185Z,23.95
2022-07-28T13:50:50.448Z,22.09
2022-07-28T13:53:35.539Z,23.90
2022-07-28T13:56:21.825Z,23.04
2022-07-28T13:59:09.212Z,23.88
2022-07-28T14:01:42.565Z,23.89
2022-07-28T14:04:16.929Z,23.40
2022-07-28T14:06:49.594Z,23.62
2022-07-28T14:12:10.384Z,24.20
2022-07-28T14:14:48.229Z,24.18
2022-07-28T14:17:44.041Z,23.76
2022-07-28T14:20:23.046Z,23.08
2022-07-28T14:22:58.265Z,23.71
2022-07-28T14:25:48.225Z,24.29
2022-07-28T14:28:27.630Z,23.45
2022-07-28T14:30:58.659Z,24.15
2022-07-28T14:33:29.467Z,24.30
2022-07-28T14:36:06.747Z,23.19
2022-07-28T14:38:52.965Z,24.43
2022-07-28T14:41:22.669Z,24.48
2022-07-28T14:43:53.464Z,24.53
2022-07-28T14:46:29.535Z,24.55
2022-07-28T14:49:04.755Z,24.67
2022-07-28T14:51:41.693Z,24.63
2022-07-28T14:54:17.057Z,22.92
2022-07-28T14:56:46.246Z,24.65
2022-07-28T14:59:17.708Z,24.59
2022-07-28T15:01:48.794Z,24.61
2022-07-28T15:04:18.595Z,24.66
2022-07-28T15:06:52.560Z,24.59
2022-07-28T15:09:50.600Z,24.59
2022-07-28T15:12:24.297Z,24.65
2022-07-28T15:14:53.206Z,24.80
2022-07-28T15:17:31.517Z,24.85
2022-07-28T15:20:06.653Z,24.95
2022-07-28T15:22:35.761Z,24.73
2022-07-28T15:25:06.783Z,24.71
2022-07-28T15:27:35.423Z,24.76
2022-07-28T15:30:04.711Z,24.75
2022-07-28T15:32:54.741Z,24.74
2022-07-28T15:36:31.012Z,24.78
2022-07-28T15:38:38.639Z,24.11
2022-07-28T15:41:14.897Z,24.69
2022-07-28T15:44:05.816Z,24.71
2022-07-28T15:46:36.123Z,23.85
2022-07-28T15:49:12.864Z,23.04
2022-07-28T15:51:46.978Z,23.01
2022-07-28T15:54:16.461Z,24.78
2022-07-28T15:56:58.940Z,23.19
2022-07-28T15:59:48.834Z,23.82
2022-07-28T16:02:19.572Z,25.05
2022-07-28T16:04:54.381Z,24.99
2022-07-28T16:07:40.699Z,24.87
2022-07-28T16:10:21.151Z,25.14
2022-07-28T16:13:00.940Z,25.30
2022-07-28T16:15:34.911Z,23.22
2022-07-28T16:18:06.999Z,24.04
2022-07-28T16:20:50.867Z,25.43
2022-07-28T16:23:28.911Z,24.73
2022-07-28T16:25:57.918Z,25.69
2022-07-28T16:28:30.871Z,24.52
2022-07-28T16:30:59.865Z,25.91
2022-07-28T16:33:34.473Z,25.82
2022-07-28T16:54:12.518Z,24.36
2022-07-28T16:56:43.189Z,25.18
2022-07-28T16:59:11.956Z,25.06
2022-07-28T17:01:47.087Z,24.95
2022-07-28T17:04:24.404Z,24.36
2022-07-28T17:07:04.723Z,23.23
2022-07-28T17:09:34.677Z,23.77
2022-07-28T17:12:04.638Z,25.11
2022-07-28T17:14:36.581Z,25.19
2022-07-28T17:17:12.561Z,25.17
2022-07-28T17:19:46.458Z,25.26
2022-07-28T17:22:16.049Z,25.02
2022-07-28T17:24:48.329Z,24.38
2022-07-28T17:27:37.844Z,24.95
2022-07-28T17:30:08.863Z,24.89
2022-07-28T17:32:37.895Z,24.60
2022-07-28T17:35:34.807Z,24.76
2022-07-28T17:38:00.794Z,24.71
2022-07-28T17:40:31.138Z,24.89
2022-07-28T17:43:00.035Z,24.87
2022-07-28T17:45:29.091Z,23.78
2022-07-28T17:47:57.850Z,24.77
2022-07-28T17:50:26.495Z,24.54
2022-07-28T17:52:55.311Z,24.57
2022-07-28T17:55:55.829Z,24.57
2022-07-28T17:58:29.655Z,24.57
2022-07-28T18:01:10.841Z,24.44
2022-07-28T18:03:57.097Z,24.44
2022-07-28T18:06:40.134Z,23.34
2022-07-28T18:09:17.563Z,24.36
2022-07-28T18:11:55.458Z,24.32
2022-07-28T18:14:29.514Z,24.23
2022-07-28T18:16:58.939Z,24.04
2022-07-28T18:19:29.080Z,23.89
2022-07-28T18:21:58.021Z,23.59
2022-07-28T18:24:26.931Z,23.53
2022-07-28T18:26:58.072Z,23.30
2022-07-28T18:29:38.233Z,23.24
2022-07-28T18:32:09.977Z,23.10
2022-07-28T18:34:40.458Z,23.00
2022-07-28T18:37:10.988Z,22.87
2022-07-28T18:47:25.252Z,22.39
2022-07-28T18:51:08.832Z,21.52
2022-07-28T19:33:47.676Z,21.20
2022-07-28T19:36:16.847Z,21.15
2022-07-28T19:39:45.848Z,20.39
2022-07-28T19:47:23.100Z,20.72
2022-07-28T19:51:08.209Z,19.04
2022-07-28T19:53:42.641Z,18.50
2022-07-28T20:00:11.295Z,20.42
2022-07-28T20:02:43.533Z,20.36
2022-07-28T20:08:53.373Z,18.20
2022-07-28T20:11:23.031Z,20.28
2022-07-28T20:13:54.871Z,19.52
2022-07-28T20:16:27.090Z,19.61
2022-07-28T20:19:01.994Z,18.31
2022-07-28T20:21:39.276Z,20.21
2022-07-28T20:24:10.639Z,19.73
2022-07-28T20:26:39.372Z,19.19
2022-07-28T20:29:08.250Z,20.06
2022-07-28T20:31:37.320Z,19.92
2022-07-28T20:34:12.810Z,19.93
2022-07-28T20:36:43.103Z,19.84
2022-07-28T20:39:43.433Z,19.69
2022-07-28T20:42:07.955Z,19.70
2022-07-28T20:44:37.540Z,19.70
2022-07-28T20:47:09.548Z,19.64
2022-07-28T20:50:42.073Z,19.56
2022-07-28T20:53:12.966Z,19.53
2022-07-28T20:55:43.266Z,19.49
2022-07-28T20:58:13.645Z,19.46
2022-07-28T21:00:43.860Z,19.36
2022-07-28T21:03:12.657Z,19.33
2022-07-28T21:05:46.171Z,19.23
2022-07-28T21:08:18.448Z,19.19
2022-07-28T21:10:50.601Z,19.08
2022-07-28T21:13:19.318Z,19.05
2022-07-28T21:15:48.349Z,18.97
2022-07-28T21:18:18.159Z,19.03
2022-07-28T21:20:46.794Z,18.80
2022-07-28T21:23:15.911Z,18.96
2022-07-28T21:25:45.726Z,18.90
2022-07-28T21:28:33.405Z,18.50
2022-07-28T21:31:03.067Z,18.81
2022-07-28T21:33:34.094Z,18.74
2022-07-28T21:36:03.697Z,18.65
2022-07-28T21:38:34.473Z,18.52
2022-07-28T21:41:03.339Z,17.42
2022-07-28T21:44:20.816Z,18.14
2022-07-28T21:47:01.087Z,18.21
2022-07-28T21:49:35.341Z,18.10
2022-07-28T21:52:05.003Z,18.00
2022-07-28T21:54:34.073Z,17.90
2022-07-28T21:57:02.937Z,17.89
2022-07-28T21:59:49.323Z,17.75
2022-07-28T22:02:18.219Z,17.81
2022-07-28T22:04:47.228Z,17.85
2022-07-28T22:07:16.293Z,17.93
2022-07-28T22:09:48.298Z,17.86
2022-07-28T22:12:17.134Z,16.97
2022-07-28T22:14:47.334Z,18.13
2022-07-28T22:17:16.250Z,18.14
2022-07-28T22:19:45.314Z,18.14
2022-07-28T22:22:14.635Z,18.13
2022-07-28T22:24:43.722Z,18.09
2022-07-28T22:27:12.817Z,18.06
2022-07-28T22:29:43.538Z,18.04
2022-07-28T22:32:28.721Z,17.72
2022-07-28T22:34:58.378Z,18.10
2022-07-28T22:37:27.288Z,18.07
2022-07-28T22:39:56.478Z,18.08
2022-07-28T22:42:25.304Z,18.00
2022-07-28T22:44:53.998Z,17.50
2022-07-28T22:47:24.002Z,17.90
2022-07-28T22:49:53.881Z,18.05
2022-07-28T22:52:27.201Z,17.97
2022-07-28T22:54:56.314Z,17.92
2022-07-28T22:57:26.156Z,17.55
2022-07-28T22:59:56.245Z,17.39
2022-07-28T23:02:27.118Z,17.78
2022-07-28T23:04:56.183Z,17.76
